Weather at Beatty Airport

Public forecast

Using degrees Fahrenheit for public forecast. Weather courtesy of forecast.io.

Closest aviation weather report (METAR) to Beatty Airport

Closest report is Desert Rock Airport, 39.1 nm (72.4 km) ESE. Retrieved 2021/06/12 11:53 UTC (10 minutes ago):

KDRA 121153Z AUTO 09005KT 10SM CLR 16/M17 A2993 RMK AO2 SLP092 T01611167 10222 20156 53000

Closest aviation forecast (TAF) to Beatty Airport

Forecast is more than 12 hours old.

Closest forecast is Desert Rock Airport, 39.1 nm (72.4 km) ESE. Retrieved 2011/12/07 06:36 UTC (10 years ago):

TAF KDRA 070532Z 0706/0806 VRB04KT P6SM SKC